createdAt,value
2023-03-03T00:01:03.330Z,13.95
2023-03-03T00:03:31.151Z,10.98
2023-03-03T00:05:59.677Z,17.27
2023-03-03T00:08:28.104Z,13.23
2023-03-03T00:10:55.854Z,12.68
2023-03-03T00:13:27.137Z,15.52
2023-03-03T00:16:07.057Z,15.30
2023-03-03T00:18:37.685Z,13.43
2023-03-03T00:21:20.451Z,12.38
2023-03-03T00:23:48.317Z,18.40
2023-03-03T00:26:22.504Z,13.68
2023-03-03T00:28:54.563Z,12.07
2023-03-03T00:31:32.477Z,15.23
2023-03-03T00:34:06.231Z,15.40
2023-03-03T00:36:38.159Z,16.40
2023-03-03T00:39:20.285Z,13.85
2023-03-03T00:41:48.045Z,14.73
2023-03-03T00:44:48.305Z,16.48
2023-03-03T00:47:29.933Z,16.52
2023-03-03T00:50:22.594Z,18.45
2023-03-03T00:53:00.856Z,16.52
2023-03-03T00:55:28.695Z,18.23
2023-03-03T00:57:56.549Z,15.50
2023-03-03T01:00:25.759Z,15.43
2023-03-03T01:02:53.623Z,19.48
2023-03-03T01:05:23.586Z,15.88
2023-03-03T01:07:51.368Z,17.58
2023-03-03T01:10:19.257Z,19.55
2023-03-03T01:12:47.161Z,17.40
2023-03-03T01:15:16.647Z,19.23
2023-03-03T01:17:45.830Z,18.38
2023-03-03T01:20:17.889Z,22.40
2023-03-03T01:22:45.634Z,20.23
2023-03-03T01:25:13.394Z,21.05
2023-03-03T01:27:41.470Z,23.48
2023-03-03T01:30:10.582Z,22.45
2023-03-03T01:32:38.654Z,21.63
2023-03-03T01:35:08.698Z,26.23
2023-03-03T01:37:36.934Z,22.00
2023-03-03T01:40:06.423Z,26.63
2023-03-03T01:42:34.267Z,21.27
2023-03-03T01:45:18.494Z,22.02
2023-03-03T01:47:50.633Z,20.50
2023-03-03T01:50:39.862Z,21.77
2023-03-03T01:53:14.041Z,18.27
2023-03-03T01:55:43.241Z,22.33
2023-03-03T01:58:15.373Z,26.00
2023-03-03T02:00:47.534Z,26.02
2023-03-03T02:03:15.402Z,24.17
2023-03-03T02:05:44.927Z,26.25
2023-03-03T02:08:17.735Z,24.23
2023-03-03T02:10:47.219Z,21.53
2023-03-03T02:13:15.583Z,19.30
2023-03-03T02:15:43.372Z,26.48
2023-03-03T02:18:13.614Z,19.35
2023-03-03T02:20:53.621Z,29.38
2023-03-03T02:23:26.716Z,23.52
2023-03-03T02:26:06.828Z,20.70
2023-03-03T02:28:36.682Z,21.73
2023-03-03T02:31:07.223Z,21.90
2023-03-03T02:33:34.964Z,24.45
2023-03-03T02:36:02.768Z,21.88
2023-03-03T02:38:35.020Z,24.17
2023-03-03T02:41:12.458Z,23.92
2023-03-03T02:43:47.757Z,22.67
2023-03-03T02:46:15.561Z,25.15
2023-03-03T02:48:43.305Z,22.65
2023-03-03T02:51:11.132Z,22.35
2023-03-03T02:53:38.901Z,22.85
2023-03-03T02:56:09.948Z,25.45
2023-03-03T02:58:38.368Z,23.90
2023-03-03T03:01:06.752Z,21.35
2023-03-03T03:03:34.579Z,25.90
2023-03-03T03:06:02.439Z,30.10
2023-03-03T03:08:30.374Z,22.88
2023-03-03T03:10:58.286Z,23.70
2023-03-03T03:13:27.950Z,24.35
2023-03-03T03:15:55.651Z,33.83
2023-03-03T03:18:23.471Z,29.65
2023-03-03T03:20:51.265Z,71.93
2023-03-03T03:23:21.834Z,68.63
2023-03-03T03:25:50.028Z,57.78
2023-03-03T03:28:19.874Z,59.17
2023-03-03T03:30:48.983Z,42.00
2023-03-03T03:33:16.779Z,49.88
2023-03-03T03:35:47.100Z,38.22
2023-03-03T03:38:15.818Z,45.72
2023-03-03T03:40:44.383Z,41.00
2023-03-03T03:43:12.226Z,69.93
2023-03-03T03:45:40.228Z,56.20
2023-03-03T03:48:09.428Z,52.75
2023-03-03T03:50:37.663Z,49.40
2023-03-03T03:53:05.463Z,57.75
2023-03-03T03:55:33.819Z,56.30
2023-03-03T03:58:01.610Z,70.10
2023-03-03T04:00:29.375Z,36.72
2023-03-03T04:02:57.209Z,48.67
2023-03-03T04:05:26.462Z,46.67
2023-03-03T04:07:54.210Z,127.70
2023-03-03T04:10:21.941Z,116.68
2023-03-03T04:12:49.714Z,128.38
2023-03-03T04:15:17.499Z,75.05
2023-03-03T04:17:45.317Z,98.88
2023-03-03T04:20:15.315Z,67.72
2023-03-03T04:22:44.926Z,64.97
2023-03-03T04:25:15.666Z,56.42
2023-03-03T04:27:44.329Z,62.60
2023-03-03T04:30:13.905Z,61.70
2023-03-03T04:32:42.413Z,60.63
2023-03-03T04:35:11.022Z,48.35
2023-03-03T04:37:39.574Z,60.53
2023-03-03T04:40:11.289Z,63.60
2023-03-03T04:42:39.066Z,61.78
2023-03-03T04:45:08.078Z,75.32
2023-03-03T04:47:35.968Z,50.30
2023-03-03T04:50:04.131Z,59.97
2023-03-03T04:52:31.942Z,51.67
2023-03-03T04:55:00.985Z,73.60
2023-03-03T04:57:30.108Z,77.90
2023-03-03T04:59:57.849Z,91.43
2023-03-03T05:02:25.661Z,65.03
2023-03-03T05:04:53.797Z,66.22
2023-03-03T05:07:21.595Z,106.70
2023-03-03T05:09:49.360Z,107.78
2023-03-03T05:12:17.317Z,94.70
2023-03-03T05:14:46.518Z,102.97
2023-03-03T05:17:14.429Z,66.35
2023-03-03T05:19:42.434Z,69.50
2023-03-03T05:22:10.388Z,96.60
2023-03-03T05:24:38.124Z,53.83
2023-03-03T05:27:05.914Z,84.65
2023-03-03T05:29:33.754Z,79.55
2023-03-03T05:32:02.973Z,69.68
2023-03-03T05:34:30.805Z,78.30
2023-03-03T05:36:58.603Z,69.10
2023-03-03T05:39:26.401Z,96.00
2023-03-03T05:41:54.688Z,67.20
2023-03-03T05:44:22.609Z,104.55
2023-03-03T05:46:50.397Z,70.88
2023-03-03T05:49:19.821Z,114.90
2023-03-03T05:51:47.616Z,153.32
2023-03-03T05:54:15.808Z,90.20
2023-03-03T05:56:43.570Z,100.25
2023-03-03T05:59:11.327Z,96.93
2023-03-03T06:01:39.146Z,110.95
2023-03-03T06:04:07.034Z,88.97
2023-03-03T06:06:36.264Z,107.35
2023-03-03T06:09:04.734Z,120.90
2023-03-03T06:11:32.441Z,97.53
2023-03-03T06:14:00.464Z,77.15
2023-03-03T06:16:28.308Z,98.70
2023-03-03T06:18:56.145Z,72.60
2023-03-03T06:21:23.872Z,86.38
2023-03-03T06:23:53.034Z,150.75
2023-03-03T06:26:20.835Z,101.50
2023-03-03T06:28:50.220Z,85.47
2023-03-03T06:31:17.991Z,127.35
2023-03-03T06:33:45.813Z,68.30
2023-03-03T06:36:13.602Z,89.85
2023-03-03T06:38:41.456Z,107.10
2023-03-03T06:41:10.845Z,107.65
2023-03-03T06:43:39.296Z,90.85
2023-03-03T06:46:07.328Z,74.95
2023-03-03T06:48:35.560Z,94.18
2023-03-03T06:51:11.725Z,90.03
2023-03-03T06:53:39.503Z,68.50
2023-03-03T06:56:11.707Z,84.68
2023-03-03T06:58:39.475Z,73.10
2023-03-03T07:01:16.763Z,66.30
2023-03-03T07:03:45.027Z,100.57
2023-03-03T07:06:21.550Z,58.67
2023-03-03T07:08:49.384Z,54.22
2023-03-03T07:11:20.873Z,59.72
2023-03-03T07:13:50.830Z,94.72
2023-03-03T07:16:20.960Z,52.05
2023-03-03T07:18:53.348Z,65.20
2023-03-03T07:21:23.980Z,68.00
2023-03-03T07:23:53.248Z,85.75
2023-03-03T07:26:28.878Z,55.47
2023-03-03T07:28:59.718Z,56.75
2023-03-03T07:31:38.678Z,74.35
2023-03-03T07:34:20.887Z,61.67
2023-03-03T07:36:50.596Z,95.13
2023-03-03T07:39:35.119Z,73.20
2023-03-03T07:42:21.841Z,86.82
2023-03-03T07:44:53.239Z,57.83
2023-03-03T07:47:23.908Z,66.28
2023-03-03T07:49:52.880Z,60.70
2023-03-03T07:52:30.727Z,77.28
2023-03-03T07:55:01.445Z,72.45
2023-03-03T07:57:37.364Z,78.20
2023-03-03T08:01:00.489Z,65.53
2023-03-03T08:03:28.349Z,65.07
2023-03-03T08:05:56.087Z,63.25
2023-03-03T08:08:32.824Z,61.20
2023-03-03T08:11:01.782Z,67.38
2023-03-03T08:13:38.822Z,57.00
2023-03-03T08:16:30.335Z,58.85
2023-03-03T08:19:05.942Z,50.13
2023-03-03T08:21:36.359Z,59.47
2023-03-03T08:24:04.288Z,45.10
2023-03-03T08:26:32.134Z,45.83
2023-03-03T08:29:01.309Z,50.90
2023-03-03T08:31:40.775Z,34.33
2023-03-03T08:34:09.779Z,35.40
2023-03-03T08:36:37.594Z,31.25
2023-03-03T08:39:06.678Z,36.00
2023-03-03T08:41:34.488Z,28.75
2023-03-03T08:44:03.641Z,36.80
2023-03-03T08:46:31.463Z,29.10
2023-03-03T08:48:59.432Z,36.92
2023-03-03T08:51:27.388Z,28.80
2023-03-03T08:53:55.350Z,33.53
2023-03-03T08:56:23.137Z,24.55
2023-03-03T08:59:01.898Z,27.88
2023-03-03T09:01:32.259Z,28.48
2023-03-03T09:04:00.208Z,25.40
2023-03-03T09:06:28.166Z,32.15
2023-03-03T09:08:56.435Z,35.20
2023-03-03T09:11:27.634Z,32.88
2023-03-03T09:14:03.370Z,36.17
2023-03-03T09:16:38.468Z,27.67
2023-03-03T09:19:20.708Z,28.83
2023-03-03T09:21:51.145Z,29.40
2023-03-03T09:24:26.783Z,28.88
2023-03-03T09:26:55.015Z,30.55
2023-03-03T09:29:30.238Z,29.30
2023-03-03T09:32:02.234Z,23.90
2023-03-03T09:34:40.862Z,28.00
2023-03-03T09:37:28.400Z,22.50
2023-03-03T09:39:57.576Z,29.85
2023-03-03T09:42:43.538Z,24.52
2023-03-03T09:45:27.824Z,15.43
2023-03-03T09:48:16.150Z,27.23
2023-03-03T09:50:54.423Z,30.40
2023-03-03T09:53:38.361Z,14.93
2023-03-03T09:56:14.891Z,18.08
2023-03-03T09:59:02.877Z,18.00
2023-03-03T10:01:44.042Z,13.57
2023-03-03T10:04:26.466Z,12.20
2023-03-03T10:07:04.499Z,11.07
2023-03-03T10:09:48.192Z,14.00
2023-03-03T10:12:24.033Z,9.70
2023-03-03T10:15:17.787Z,11.20
2023-03-03T10:17:53.072Z,9.77
2023-03-03T10:20:49.547Z,9.25
2023-03-03T10:23:23.425Z,15.27
2023-03-03T10:26:11.035Z,9.70
2023-03-03T10:29:00.338Z,10.98
2023-03-03T10:31:43.588Z,8.48
2023-03-03T10:34:27.214Z,8.80
2023-03-03T10:37:05.666Z,15.30
2023-03-03T10:39:49.263Z,13.20
2023-03-03T10:42:28.457Z,6.13
2023-03-03T10:45:21.313Z,8.60
2023-03-03T10:48:02.888Z,8.80
2023-03-03T10:50:35.884Z,10.25
2023-03-03T10:53:19.604Z,7.35
2023-03-03T10:55:59.140Z,9.00
2023-03-03T10:58:46.293Z,9.18
2023-03-03T11:01:24.415Z,8.32
2023-03-03T11:04:15.270Z,5.60
2023-03-03T11:06:52.099Z,6.57
2023-03-03T11:09:38.328Z,11.43
2023-03-03T11:12:17.213Z,12.15
2023-03-03T11:14:51.050Z,5.65
2023-03-03T11:20:00.905Z,7.22
2023-03-03T11:22:40.068Z,6.35
2023-03-03T11:25:23.284Z,7.97
2023-03-03T11:28:07.082Z,4.40
2023-03-03T11:30:57.454Z,5.07
2023-03-03T11:33:35.281Z,5.45
2023-03-03T11:36:11.916Z,6.88
2023-03-03T11:38:47.826Z,4.53
2023-03-03T11:41:27.583Z,7.13
2023-03-03T11:44:00.818Z,6.70
2023-03-03T11:46:35.405Z,4.72
2023-03-03T11:49:07.783Z,6.97
2023-03-03T11:51:48.832Z,6.13
2023-03-03T11:54:22.524Z,4.45
2023-03-03T11:56:56.432Z,5.15
2023-03-03T11:59:41.469Z,6.20
2023-03-03T12:02:26.565Z,4.40
2023-03-03T12:04:58.419Z,4.07
2023-03-03T12:07:34.183Z,3.42
2023-03-03T12:10:15.506Z,6.47
2023-03-03T12:12:47.000Z,2.67
2023-03-03T12:15:28.081Z,5.97
2023-03-03T12:18:16.502Z,5.75
2023-03-03T12:20:56.760Z,2.92
2023-03-03T12:23:54.101Z,9.40
2023-03-03T12:26:29.437Z,7.75
2023-03-03T12:29:06.416Z,7.63
2023-03-03T12:31:50.669Z,3.85
2023-03-03T12:37:06.132Z,4.35
2023-03-03T12:39:45.398Z,3.08
2023-03-03T12:42:23.559Z,4.63
2023-03-03T12:45:03.168Z,3.35
2023-03-03T12:47:41.104Z,4.90
2023-03-03T12:50:28.767Z,4.20
2023-03-03T12:53:09.888Z,3.58
2023-03-03T12:55:50.351Z,4.35
2023-03-03T12:58:32.256Z,4.25
2023-03-03T13:01:13.546Z,5.00
2023-03-03T13:03:55.704Z,3.58
2023-03-03T13:06:30.013Z,4.88
2023-03-03T13:11:56.412Z,1.70
2023-03-03T13:14:33.069Z,4.97
2023-03-03T13:17:16.289Z,3.03
2023-03-03T13:19:52.451Z,4.60
2023-03-03T13:22:32.689Z,8.05
2023-03-03T13:25:07.824Z,2.17
2023-03-03T13:27:41.270Z,3.55
2023-03-03T13:30:19.624Z,5.07
2023-03-03T13:32:55.911Z,6.28
2023-03-03T13:35:33.945Z,4.65
2023-03-03T13:38:03.879Z,5.55
2023-03-03T13:40:42.405Z,3.00
2023-03-03T13:43:17.969Z,3.03
2023-03-03T13:45:56.054Z,4.10
2023-03-03T13:48:35.805Z,4.47
2023-03-03T13:51:10.518Z,6.68
2023-03-03T13:53:48.343Z,1.77
2023-03-03T13:56:29.889Z,4.30
2023-03-03T13:59:08.289Z,3.03
2023-03-03T14:01:50.216Z,5.75
2023-03-03T14:04:32.733Z,3.08
2023-03-03T14:07:09.338Z,4.47
2023-03-03T14:09:51.658Z,4.45
2023-03-03T14:12:26.978Z,4.65
2023-03-03T14:15:04.999Z,4.65
2023-03-03T14:17:39.353Z,3.40
2023-03-03T14:20:21.009Z,5.97
2023-03-03T14:22:54.597Z,5.85
2023-03-03T14:25:22.464Z,4.13
2023-03-03T14:28:03.888Z,3.10
2023-03-03T14:30:35.275Z,4.75
2023-03-03T14:33:16.105Z,5.70
2023-03-03T14:35:51.419Z,8.02
2023-03-03T14:38:21.698Z,7.80
2023-03-03T14:40:50.528Z,6.50
2023-03-03T14:43:25.660Z,7.97
2023-03-03T14:45:54.123Z,8.40
2023-03-03T14:48:24.819Z,9.88
2023-03-03T14:50:58.201Z,4.32
2023-03-03T14:53:34.107Z,5.88
2023-03-03T14:56:23.777Z,3.55
2023-03-03T14:58:53.154Z,3.90
2023-03-03T15:01:32.361Z,4.93
2023-03-03T15:04:02.045Z,5.05
2023-03-03T15:06:36.434Z,13.48
2023-03-03T15:09:32.709Z,12.15
2023-03-03T15:12:01.267Z,3.03
2023-03-03T15:14:36.443Z,3.65
2023-03-03T15:17:27.937Z,6.75
2023-03-03T15:20:06.050Z,2.25
2023-03-03T15:22:51.343Z,2.90
2023-03-03T15:25:41.899Z,4.38
2023-03-03T15:28:28.450Z,5.95
2023-03-03T15:31:04.651Z,4.40
2023-03-03T15:33:40.961Z,2.15
2023-03-03T15:36:15.961Z,3.90
2023-03-03T15:38:56.990Z,4.95
2023-03-03T15:41:38.660Z,4.45
2023-03-03T15:44:16.461Z,2.22
2023-03-03T15:47:14.214Z,3.95
2023-03-03T15:50:05.012Z,7.65
2023-03-03T15:52:49.082Z,4.57
2023-03-03T15:55:32.024Z,3.70
2023-03-03T15:58:13.784Z,4.65
2023-03-03T16:01:10.769Z,5.18
2023-03-03T16:03:45.632Z,7.78
2023-03-03T16:06:19.681Z,3.85
2023-03-03T16:08:55.005Z,6.28
2023-03-03T16:11:27.455Z,7.68
2023-03-03T16:14:22.911Z,4.80
2023-03-03T16:16:58.753Z,8.20
2023-03-03T16:19:37.661Z,4.78
2023-03-03T16:22:24.495Z,4.20
2023-03-03T16:25:06.381Z,5.45
2023-03-03T16:27:40.693Z,5.75
2023-03-03T16:30:24.746Z,4.10
2023-03-03T16:32:58.798Z,6.32
2023-03-03T16:35:31.996Z,5.43
2023-03-03T16:38:02.658Z,5.30
2023-03-03T16:40:34.265Z,18.35
2023-03-03T16:43:18.950Z,5.32
2023-03-03T16:45:47.549Z,6.80
2023-03-03T16:48:36.998Z,8.02
2023-03-03T16:51:17.064Z,5.22
2023-03-03T16:53:53.198Z,22.42
2023-03-03T16:56:24.797Z,5.80
2023-03-03T16:59:17.846Z,4.38
2023-03-03T17:01:54.692Z,6.43
2023-03-03T17:04:38.067Z,7.07
2023-03-03T17:07:16.685Z,6.72
2023-03-03T17:09:59.831Z,12.90
2023-03-03T17:12:41.592Z,7.63
2023-03-03T17:15:21.161Z,7.82
2023-03-03T17:17:56.707Z,9.95
2023-03-03T17:20:32.210Z,7.40
2023-03-03T17:23:22.197Z,6.43
2023-03-03T17:25:59.623Z,6.72
2023-03-03T17:28:40.903Z,9.55
2023-03-03T17:31:17.042Z,13.68
2023-03-03T17:33:58.128Z,10.57
2023-03-03T17:36:48.067Z,16.95
2023-03-03T17:39:35.791Z,14.90
2023-03-03T17:42:10.589Z,11.52
2023-03-03T17:44:46.419Z,11.95
2023-03-03T17:47:24.603Z,9.63
2023-03-03T17:50:08.424Z,13.25
2023-03-03T17:53:09.538Z,9.40
2023-03-03T17:55:48.621Z,10.25
2023-03-03T17:58:35.166Z,6.95
2023-03-03T18:01:15.130Z,8.10
2023-03-03T18:03:59.429Z,11.23
2023-03-03T18:06:56.360Z,11.27
2023-03-03T18:09:44.871Z,10.65
2023-03-03T18:12:20.038Z,9.23
2023-03-03T18:15:08.417Z,14.32
2023-03-03T18:17:46.386Z,10.20
2023-03-03T18:20:36.930Z,12.57
2023-03-03T18:23:31.423Z,10.95
2023-03-03T18:28:45.617Z,15.98
2023-03-03T18:31:24.366Z,13.95
2023-03-03T18:34:10.186Z,17.17
2023-03-03T18:36:53.783Z,16.55
2023-03-03T18:39:41.015Z,14.35
2023-03-03T18:42:38.194Z,14.80
2023-03-03T18:45:48.763Z,14.30
2023-03-03T18:48:17.423Z,17.42
2023-03-03T18:50:47.008Z,22.15
2023-03-03T18:53:26.319Z,18.52
2023-03-03T18:55:56.522Z,20.17
2023-03-03T18:58:32.450Z,21.90
2023-03-03T19:01:04.002Z,18.48
2023-03-03T19:03:38.609Z,14.77
2023-03-03T19:06:08.728Z,13.63
2023-03-03T19:08:56.380Z,18.77
2023-03-03T19:11:44.649Z,14.80
2023-03-03T19:14:35.339Z,16.85
2023-03-03T19:17:41.334Z,12.98
2023-03-03T19:20:14.259Z,19.42
2023-03-03T19:22:48.019Z,16.00
2023-03-03T19:27:52.918Z,16.60
2023-03-03T19:30:43.529Z,20.30
2023-03-03T19:33:35.076Z,19.95
2023-03-03T19:36:19.534Z,21.80
2023-03-03T19:38:59.873Z,18.77
2023-03-03T19:41:42.874Z,27.55
2023-03-03T19:47:34.666Z,19.67
2023-03-03T19:50:13.669Z,15.50
2023-03-03T19:52:47.065Z,22.20
2023-03-03T19:55:28.206Z,22.95
2023-03-03T19:58:11.488Z,21.60
2023-03-03T20:00:43.079Z,19.03
2023-03-03T20:03:51.547Z,16.58
2023-03-03T20:06:33.242Z,19.10
2023-03-03T20:09:04.721Z,19.40
2023-03-03T20:11:48.313Z,21.50
2023-03-03T20:14:34.609Z,23.55
2023-03-03T20:17:22.803Z,21.75
2023-03-03T20:19:57.228Z,24.55
2023-03-03T20:22:36.524Z,18.98
2023-03-03T20:25:15.596Z,14.88
2023-03-03T20:27:53.079Z,18.83
2023-03-03T20:30:46.941Z,26.35
2023-03-03T20:33:28.200Z,23.50
2023-03-03T20:36:07.955Z,20.63
2023-03-03T20:38:48.291Z,28.00
2023-03-03T20:41:25.471Z,42.17
2023-03-03T20:44:04.391Z,41.33
2023-03-03T20:46:44.450Z,27.50
2023-03-03T20:49:30.356Z,30.02
2023-03-03T20:52:02.839Z,28.95
2023-03-03T20:54:39.174Z,27.70
2023-03-03T20:57:18.470Z,21.80
2023-03-03T20:59:54.086Z,29.33
2023-03-03T21:02:29.628Z,20.67
2023-03-03T21:05:10.708Z,25.08
2023-03-03T21:07:41.030Z,23.70
2023-03-03T21:10:15.360Z,23.85
2023-03-03T21:12:43.941Z,24.45
2023-03-03T21:15:24.034Z,24.05
2023-03-03T21:17:54.837Z,25.98
2023-03-03T21:20:28.977Z,18.77
2023-03-03T21:22:57.451Z,20.25
2023-03-03T21:25:45.644Z,21.88
2023-03-03T21:28:18.898Z,18.02
2023-03-03T21:31:16.860Z,21.17
2023-03-03T21:33:52.078Z,24.42
2023-03-03T21:36:23.162Z,24.08
2023-03-03T21:38:52.466Z,21.45
2023-03-03T21:41:21.334Z,22.92
2023-03-03T21:43:52.052Z,19.58
2023-03-03T21:46:20.817Z,25.08
2023-03-03T21:48:50.072Z,25.92
2023-03-03T21:51:20.326Z,28.35
2023-03-03T21:53:48.212Z,30.27
2023-03-03T21:56:15.971Z,26.33
2023-03-03T21:58:44.162Z,21.23
2023-03-03T22:01:12.008Z,22.05
2023-03-03T22:03:40.605Z,22.40
2023-03-03T22:06:09.816Z,20.98
2023-03-03T22:08:37.619Z,26.42
2023-03-03T22:11:05.895Z,24.52
2023-03-03T22:13:33.635Z,23.83
2023-03-03T22:16:01.439Z,21.70
2023-03-03T22:18:29.232Z,26.63
2023-03-03T22:20:56.951Z,16.83
2023-03-03T22:23:26.676Z,23.45
2023-03-03T22:25:54.410Z,17.05
2023-03-03T22:28:22.358Z,29.42
2023-03-03T22:30:50.215Z,34.22
2023-03-03T22:33:17.999Z,23.40
2023-03-03T22:35:45.843Z,17.80
2023-03-03T22:38:13.715Z,22.05
2023-03-03T22:40:43.075Z,20.48
2023-03-03T22:43:11.740Z,26.88
2023-03-03T22:45:39.522Z,25.90
2023-03-03T22:48:07.613Z,25.95
2023-03-03T22:50:39.403Z,19.13
2023-03-03T22:53:07.250Z,21.80
2023-03-03T22:55:37.059Z,17.50
2023-03-03T22:58:09.172Z,24.33
2023-03-03T23:00:38.321Z,21.90
2023-03-03T23:03:06.402Z,16.42
2023-03-03T23:05:35.766Z,18.90
2023-03-03T23:08:04.174Z,18.58
2023-03-03T23:10:32.025Z,28.00
2023-03-03T23:12:59.790Z,18.50
2023-03-03T23:15:29.094Z,25.52
2023-03-03T23:17:56.961Z,20.65
2023-03-03T23:20:27.037Z,19.45
2023-03-03T23:22:55.222Z,28.23
2023-03-03T23:25:24.016Z,27.23
2023-03-03T23:27:52.664Z,23.90
2023-03-03T23:30:21.227Z,24.20
2023-03-03T23:32:50.661Z,23.17
2023-03-03T23:35:18.703Z,25.17
2023-03-03T23:37:47.008Z,25.00
2023-03-03T23:40:16.513Z,12.30
2023-03-03T23:42:44.862Z,17.83
2023-03-03T23:45:13.639Z,22.95
2023-03-03T23:47:42.156Z,18.60
2023-03-03T23:50:13.719Z,26.75
2023-03-03T23:52:41.673Z,27.50
2023-03-03T23:55:10.268Z,25.98
2023-03-03T23:57:38.063Z,16.73
